Time,TemperatureF,DewpointF,PressureIn,WindDirection,WindDirectionDegrees,WindSpeedMPH,WindSpeedGustMPH,Humidity,HourlyPrecipIn,Conditions,Clouds,dailyrainin,SoftwareType,DateUTC
2013-09-03 00:03:00,64.8,47.2,30.08,West,270,10.4,10.4,53,0.00,CLR,BKN,0.00,WeatherDisplay:10.37,2013-09-02 22:03:00,
2013-09-03 00:08:00,64.8,47.2,30.08,NW,315,10.4,10.4,53,0.00,CLR,BKN,0.00,WeatherDisplay:10.37,2013-09-02 22:08:00,
2013-09-03 00:13:00,64.6,47.1,30.08,West,270,15.0,15.0,53,0.00,CLR,BKN,0.00,WeatherDisplay:10.37,2013-09-02 22:13:00,
2013-09-03 00:18:00,64.6,47.6,30.07,West,270,15.2,15.2,54,0.00,CLR,BKN,0.00,WeatherDisplay:10.37,2013-09-02 22:18:00,
2013-09-03 00:23:00,64.4,47.4,30.07,West,270,12.7,12.7,54,0.00,CLR,BKN,0.00,WeatherDisplay:10.37,2013-09-02 22:23:00,
2013-09-03 00:28:00,64.4,47.9,30.07,West,270,9.2,9.2,55,0.00,CLR,BKN,0.00,WeatherDisplay:10.37,2013-09-02 22:28:00,
2013-09-03 00:33:00,64.2,47.7,30.07,WSW,248,15.0,15.0,55,0.00,CLR,BKN,0.00,WeatherDisplay:10.37,2013-09-02 22:33:00,
2013-09-03 00:38:00,64.0,47.5,30.07,West,270,11.5,11.5,55,0.00,CLR,BKN,0.00,WeatherDisplay:10.37,2013-09-02 22:38:00,
2013-09-03 00:43:00,64.0,47.5,30.07,North,0,13.8,13.8,55,0.00,CLR,BKN,0.00,WeatherDisplay:10.37,2013-09-02 22:43:00,
2013-09-03 00:48:00,64.0,47.5,30.07,West,270,12.7,12.7,55,0.00,SCT,BKN,0.00,WeatherDisplay:10.37,2013-09-02 22:48:00,
2013-09-03 00:53:00,64.0,47.5,30.07,WNW,292,16.1,16.1,55,0.00,SCT,BKN,0.00,WeatherDisplay:10.37,2013-09-02 22:53:00,
2013-09-03 00:58:00,64.2,47.7,30.07,SW,225,9.8,9.8,55,0.00,SCT,BKN,0.00,WeatherDisplay:10.37,2013-09-02 22:58:00,
2013-09-03 01:03:00,64.2,47.7,30.06,West,270,13.0,13.0,55,0.00,SCT,BKN,0.00,WeatherDisplay:10.37,2013-09-02 23:03:00,
2013-09-03 01:08:00,64.0,48.0,30.06,West,270,10.4,10.4,56,0.00,SCT,BKN,0.00,WeatherDisplay:10.37,2013-09-02 23:08:00,
2013-09-03 01:13:00,64.0,48.0,30.06,West,270,11.5,11.5,56,0.00,SCT,BKN,0.00,WeatherDisplay:10.37,2013-09-02 23:13:00,
2013-09-03 01:18:00,64.0,48.5,30.06,WSW,248,20.6,20.6,57,0.00,SCT,BKN,0.00,WeatherDisplay:10.37,2013-09-02 23:18:00,
2013-09-03 01:23:00,64.0,48.5,30.06,WSW,248,12.7,12.7,57,0.00,SCT,BKN,0.00,WeatherDisplay:10.37,2013-09-02 23:23:00,
2013-09-03 01:28:00,64.0,48.5,30.06,SW,225,13.8,13.8,57,0.00,SCT,BKN,0.00,WeatherDisplay:10.37,2013-09-02 23:28:00,
2013-09-03 01:33:00,63.9,48.3,30.06,WSW,248,9.2,9.2,57,0.00,SCT,BKN,0.00,WeatherDisplay:10.37,2013-09-02 23:33:00,
2013-09-03 01:38:00,63.9,48.8,30.06,West,270,12.7,12.7,58,0.00,SCT,BKN,0.00,WeatherDisplay:10.37,2013-09-02 23:38:00,
2013-09-03 01:43:00,63.9,48.8,30.05,NE,45,11.5,11.5,58,0.00,SCT,BKN,0.00,WeatherDisplay:10.37,2013-09-02 23:43:00,
2013-09-03 01:48:00,63.9,48.8,30.06,WNW,292,17.3,17.3,58,0.00,SCT,BKN,0.00,WeatherDisplay:10.37,2013-09-02 23:48:00,
2013-09-03 01:53:00,63.9,48.8,30.06,West,270,25.3,25.3,58,0.00,SCT,BKN,0.00,WeatherDisplay:10.37,2013-09-02 23:53:00,
2013-09-03 01:58:00,63.9,48.8,30.05,SW,225,21.3,21.3,58,0.00,SCT,BKN,0.00,WeatherDisplay:10.37,2013-09-02 23:58:00,
2013-09-03 02:03:00,63.9,48.8,30.05,SW,225,12.7,12.7,58,0.00,SCT,BKN,0.00,WeatherDisplay:10.37,2013-09-03 00:03:00,
2013-09-03 02:08:00,63.7,48.6,30.05,NNW,338,13.0,13.0,58,0.00,SCT,BKN,0.00,WeatherDisplay:10.37,2013-09-03 00:08:00,
2013-09-03 02:13:00,63.7,49.1,30.05,NW,315,21.9,21.9,59,0.00,SCT,BKN,0.00,WeatherDisplay:10.37,2013-09-03 00:13:00,
2013-09-03 02:18:00,63.7,49.1,30.05,NW,315,18.4,18.4,59,0.00,CLR,BKN,0.00,WeatherDisplay:10.37,2013-09-03 00:18:00,
2013-09-03 02:23:00,63.5,48.9,30.04,West,270,20.7,20.7,59,0.00,CLR,BKN,0.00,WeatherDisplay:10.37,2013-09-03 00:23:00,
2013-09-03 02:28:00,63.5,48.9,30.05,NW,315,20.7,20.7,59,0.00,CLR,BKN,0.00,WeatherDisplay:10.37,2013-09-03 00:28:00,
2013-09-03 02:33:00,63.5,49.4,30.04,NW,315,23.5,23.5,60,0.00,CLR,BKN,0.00,WeatherDisplay:10.37,2013-09-03 00:33:00,
2013-09-03 02:38:00,63.3,49.2,30.04,NW,315,23.0,23.0,60,0.00,CLR,BKN,0.00,WeatherDisplay:10.37,2013-09-03 00:38:00,
2013-09-03 02:43:00,63.3,49.2,30.04,NW,315,12.7,12.7,60,0.00,CLR,BKN,0.00,WeatherDisplay:10.37,2013-09-03 00:43:00,
2013-09-03 02:48:00,63.3,49.2,30.04,NW,315,15.2,15.2,60,0.00,BKN,,0.00,WeatherDisplay:10.37,2013-09-03 00:48:00,
2013-09-03 02:53:00,63.1,49.5,30.04,NW,315,26.0,26.0,61,0.00,BKN,,0.00,WeatherDisplay:10.37,2013-09-03 00:53:00,
2013-09-03 02:58:00,63.0,49.3,30.04,SW,225,13.7,13.7,61,0.00,BKN,,0.00,WeatherDisplay:10.37,2013-09-03 00:58:00,
2013-09-03 03:03:00,63.0,49.7,30.03,NW,315,19.6,19.6,62,0.00,BKN,,0.00,WeatherDisplay:10.37,2013-09-03 01:03:00,
2013-09-03 03:08:00,63.1,49.9,30.03,WNW,292,26.5,26.5,62,0.00,BKN,,0.00,WeatherDisplay:10.37,2013-09-03 01:08:00,
2013-09-03 03:13:00,63.1,49.9,30.04,SW,225,21.3,21.3,62,0.00,BKN,,0.00,WeatherDisplay:10.37,2013-09-03 01:13:00,
2013-09-03 03:18:00,63.1,49.9,30.03,NW,315,19.6,19.6,62,0.00,BKN,,0.00,WeatherDisplay:10.37,2013-09-03 01:18:00,
2013-09-03 03:23:00,63.1,49.9,30.03,NW,315,15.2,15.2,62,0.00,BKN,,0.00,WeatherDisplay:10.37,2013-09-03 01:23:00,
2013-09-03 03:28:00,63.1,50.3,30.03,West,270,21.9,21.9,63,0.00,BKN,,0.00,WeatherDisplay:10.37,2013-09-03 01:28:00,
2013-09-03 03:33:00,63.1,50.3,30.03,North,0,12.7,12.7,63,0.00,BKN,,0.00,WeatherDisplay:10.37,2013-09-03 01:33:00,
2013-09-03 03:38:00,63.0,50.2,30.03,North,0,17.3,17.3,63,0.00,BKN,,0.00,WeatherDisplay:10.37,2013-09-03 01:38:00,
2013-09-03 03:43:00,63.0,50.2,30.03,North,0,15.0,15.0,63,0.00,BKN,,0.00,WeatherDisplay:10.37,2013-09-03 01:43:00,
2013-09-03 03:48:00,63.0,50.2,30.03,NW,315,8.1,8.1,63,0.00,BKN,,0.00,WeatherDisplay:10.37,2013-09-03 01:48:00,
2013-09-03 03:53:00,62.8,50.0,30.03,SW,225,9.2,9.2,63,0.00,BKN,,0.00,WeatherDisplay:10.37,2013-09-03 01:53:00,
2013-09-03 03:58:00,62.8,50.4,30.03,North,0,4.6,4.6,64,0.00,BKN,,0.00,WeatherDisplay:10.37,2013-09-03 01:58:00,
2013-09-03 04:03:00,62.8,50.4,30.03,South,180,4.6,4.6,64,0.00,BKN,,0.00,WeatherDisplay:10.37,2013-09-03 02:03:00,
2013-09-03 04:08:00,62.6,50.7,30.02,South,180,17.5,17.5,65,0.00,BKN,,0.00,WeatherDisplay:10.37,2013-09-03 02:08:00,
2013-09-03 04:13:00,62.6,51.1,30.02,North,0,17.3,17.3,66,0.00,BKN,,0.00,WeatherDisplay:10.37,2013-09-03 02:13:00,
2013-09-03 04:18:00,62.6,51.1,30.01,WSW,248,13.7,13.7,66,0.00,BKN,,0.00,WeatherDisplay:10.37,2013-09-03 02:18:00,
2013-09-03 04:23:00,62.6,51.5,30.02,NW,315,16.1,16.1,67,0.00,BKN,,0.00,WeatherDisplay:10.37,2013-09-03 02:23:00,
2013-09-03 04:28:00,62.8,51.7,30.02,WNW,292,12.7,12.7,67,0.00,BKN,,0.00,WeatherDisplay:10.37,2013-09-03 02:28:00,
2013-09-03 04:33:00,62.8,51.7,30.02,NW,315,14.5,14.5,67,0.00,BKN,,0.00,WeatherDisplay:10.37,2013-09-03 02:33:00,
2013-09-03 04:38:00,62.8,51.7,30.01,NW,315,20.7,20.7,67,0.00,BKN,,0.00,WeatherDisplay:10.37,2013-09-03 02:38:00,
2013-09-03 04:43:00,63.0,51.4,30.02,West,270,18.4,18.4,66,0.00,BKN,,0.00,WeatherDisplay:10.37,2013-09-03 02:43:00,
2013-09-03 04:48:00,63.3,51.8,30.01,West,270,19.6,19.6,66,0.00,BKN,,0.00,WeatherDisplay:10.37,2013-09-03 02:48:00,
2013-09-03 04:53:00,63.3,51.8,30.02,NW,315,20.7,20.7,66,0.00,BKN,,0.00,WeatherDisplay:10.37,2013-09-03 02:53:00,
2013-09-03 04:58:00,63.5,51.9,30.01,West,270,20.6,20.6,66,0.00,BKN,,0.00,WeatherDisplay:10.37,2013-09-03 02:58:00,
2013-09-03 05:03:00,63.7,52.1,30.02,NW,315,20.7,20.7,66,0.00,BKN,,0.00,WeatherDisplay:10.37,2013-09-03 03:03:00,
2013-09-03 05:08:00,63.5,52.3,30.02,West,270,17.3,17.3,67,0.00,BKN,,0.00,WeatherDisplay:10.37,2013-09-03 03:08:00,
2013-09-03 05:13:00,63.1,52.4,30.03,West,270,17.3,17.3,68,0.00,BKN,,0.00,WeatherDisplay:10.37,2013-09-03 03:13:00,
2013-09-03 05:18:00,62.8,52.5,30.03,WSW,248,12.7,12.7,69,0.00,SCT,BKN,0.00,WeatherDisplay:10.37,2013-09-03 03:18:00,
2013-09-03 05:23:00,62.6,52.3,30.02,WSW,248,10.4,10.4,69,0.00,SCT,BKN,0.00,WeatherDisplay:10.37,2013-09-03 03:23:00,
2013-09-03 05:28:00,62.6,52.7,30.02,NW,315,10.4,10.4,70,0.00,SCT,BKN,0.00,WeatherDisplay:10.37,2013-09-03 03:28:00,
2013-09-03 05:33:00,62.2,52.7,30.02,NW,315,10.4,10.4,71,0.00,SCT,BKN,0.00,WeatherDisplay:10.37,2013-09-03 03:33:00,
2013-09-03 05:38:00,62.2,53.1,30.02,SW,225,6.9,6.9,72,0.00,SCT,BKN,0.00,WeatherDisplay:10.37,2013-09-03 03:38:00,
2013-09-03 05:43:00,62.1,53.3,30.02,NW,315,13.8,13.8,73,0.00,SCT,BKN,0.00,WeatherDisplay:10.37,2013-09-03 03:43:00,
2013-09-03 05:48:00,61.9,53.5,30.02,NW,315,15.0,15.0,74,0.00,BKN,,0.00,WeatherDisplay:10.37,2013-09-03 03:48:00,
2013-09-03 05:53:00,61.7,54.1,30.02,West,270,17.3,17.3,76,0.00,BKN,,0.00,WeatherDisplay:10.37,2013-09-03 03:53:00,
2013-09-03 05:58:00,61.5,54.2,30.02,SW,225,12.7,12.7,77,0.00,BKN,,0.00,WeatherDisplay:10.37,2013-09-03 03:58:00,
2013-09-03 06:01:00,61.5,54.6,30.02,West,270,16.1,16.1,78,0.00,BKN,,0.00,WeatherDisplay:10.37,2013-09-03 04:01:00,
2013-09-03 06:03:00,61.5,54.6,30.03,West,270,16.1,16.1,78,0.00,BKN,,0.00,WeatherDisplay:10.37,2013-09-03 04:03:00,
2013-09-03 06:06:00,61.5,54.6,30.02,West,270,16.1,16.1,78,0.00,BKN,,0.00,WeatherDisplay:10.37,2013-09-03 04:06:00,
2013-09-03 06:10:00,61.5,54.6,30.02,West,274,3.0,16.0,78,0.00,BKN,BKN,0.00,WeatherDisplay:10.37,2013-09-03 04:10:00,
2013-09-03 06:13:00,61.7,54.8,30.02,NW,315,15.0,15.0,78,0.00,BKN,,0.00,WeatherDisplay:10.37,2013-09-03 04:13:00,
2013-09-03 06:17:00,61.7,54.8,30.02,NW,315,8.3,8.3,78,0.00,BKN,,0.00,WeatherDisplay:10.37,2013-09-03 04:17:00,
2013-09-03 06:22:00,61.7,54.8,30.02,West,270,10.4,10.4,78,0.00,BKN,,0.00,WeatherDisplay:10.37,2013-09-03 04:22:00,
2013-09-03 06:27:00,61.7,54.8,30.01,West,270,17.5,17.5,78,0.00,BKN,,0.00,WeatherDisplay:10.37,2013-09-03 04:27:00,
2013-09-03 06:32:00,61.7,54.8,30.01,WSW,248,12.7,12.7,78,0.00,BKN,,0.00,WeatherDisplay:10.37,2013-09-03 04:32:00,
2013-09-03 06:37:00,61.9,54.9,30.01,SW,225,18.4,18.4,78,0.00,BKN,,0.00,WeatherDisplay:10.37,2013-09-03 04:37:00,
2013-09-03 06:42:00,61.9,54.9,30.02,West,270,12.7,12.7,78,0.00,BKN,,0.00,WeatherDisplay:10.37,2013-09-03 04:42:00,
2013-09-03 06:47:00,61.9,54.9,30.02,WSW,248,21.9,21.9,78,0.00,BKN,,0.00,WeatherDisplay:10.37,2013-09-03 04:47:00,
2013-09-03 06:52:00,62.1,55.1,30.01,SE,135,10.4,10.4,78,0.00,BKN,,0.00,WeatherDisplay:10.37,2013-09-03 04:52:00,
2013-09-03 06:57:00,62.2,55.3,30.01,West,270,13.8,13.8,78,0.00,BKN,,0.00,WeatherDisplay:10.37,2013-09-03 04:57:00,
2013-09-03 07:02:00,62.6,54.6,30.02,SW,225,16.1,16.1,75,0.00,BKN,,0.00,WeatherDisplay:10.37,2013-09-03 05:02:00,
2013-09-03 07:07:00,62.8,54.4,30.02,West,270,19.6,19.6,74,0.00,BKN,,0.00,WeatherDisplay:10.37,2013-09-03 05:07:00,
2013-09-03 07:12:00,63.1,54.3,30.01,NW,315,17.3,17.3,73,0.00,BKN,,0.00,WeatherDisplay:10.37,2013-09-03 05:12:00,
2013-09-03 07:17:00,63.3,54.5,30.01,NW,315,17.3,17.3,73,0.00,CLR,BKN,0.00,WeatherDisplay:10.37,2013-09-03 05:17:00,
2013-09-03 07:22:00,63.5,54.3,30.00,West,270,19.7,19.7,72,0.00,CLR,BKN,0.00,WeatherDisplay:10.37,2013-09-03 05:22:00,
2013-09-03 07:27:00,63.9,54.7,30.01,NW,315,19.6,19.6,72,0.00,CLR,BKN,0.00,WeatherDisplay:10.37,2013-09-03 05:27:00,
2013-09-03 07:32:00,64.0,54.8,30.01,SW,225,21.9,21.9,72,0.00,CLR,BKN,0.00,WeatherDisplay:10.37,2013-09-03 05:32:00,
2013-09-03 07:37:00,64.2,54.6,30.01,NW,315,19.6,19.6,71,0.00,CLR,BKN,0.00,WeatherDisplay:10.37,2013-09-03 05:37:00,
2013-09-03 07:42:00,64.4,55.2,30.01,NW,315,19.7,19.7,72,0.00,CLR,BKN,0.00,WeatherDisplay:10.37,2013-09-03 05:42:00,
2013-09-03 07:47:00,64.4,54.8,30.01,NW,315,19.6,19.6,71,0.00,CLR,BKN,0.00,WeatherDisplay:10.37,2013-09-03 05:47:00,
2013-09-03 07:52:00,64.6,55.0,30.01,NW,315,23.0,23.0,71,0.00,CLR,BKN,0.00,WeatherDisplay:10.37,2013-09-03 05:52:00,
2013-09-03 07:57:00,64.8,55.1,30.01,NW,315,17.3,17.3,71,0.00,CLR,BKN,0.00,WeatherDisplay:10.37,2013-09-03 05:57:00,
2013-09-03 08:02:00,64.8,54.7,30.01,West,270,17.3,17.3,70,0.00,CLR,BKN,0.00,WeatherDisplay:10.37,2013-09-03 06:02:00,
2013-09-03 08:07:00,64.8,54.7,30.01,West,270,17.3,17.3,70,0.00,CLR,BKN,0.00,WeatherDisplay:10.37,2013-09-03 06:07:00,
2013-09-03 08:12:00,65.1,54.7,30.02,WNW,292,23.0,23.0,69,0.00,CLR,BKN,0.00,WeatherDisplay:10.37,2013-09-03 06:12:00,
2013-09-03 08:17:00,65.1,54.7,30.01,NW,315,22.2,22.2,69,0.00,CLR,BKN,0.00,WeatherDisplay:10.37,2013-09-03 06:17:00,
2013-09-03 08:22:00,65.1,54.7,30.02,NW,315,17.3,17.3,69,0.00,CLR,BKN,0.00,WeatherDisplay:10.37,2013-09-03 06:22:00,
2013-09-03 08:27:00,65.1,54.7,30.01,NNW,338,16.1,16.1,69,0.00,CLR,BKN,0.00,WeatherDisplay:10.37,2013-09-03 06:27:00,
2013-09-03 08:32:00,65.1,55.1,30.02,WNW,292,17.3,17.3,70,0.00,CLR,BKN,0.00,WeatherDisplay:10.37,2013-09-03 06:32:00,
2013-09-03 08:37:00,65.1,55.1,30.02,West,270,19.6,19.6,70,0.00,CLR,BKN,0.00,WeatherDisplay:10.37,2013-09-03 06:37:00,
2013-09-03 08:42:00,65.1,55.1,30.03,SW,225,21.3,21.3,70,0.00,CLR,BKN,0.00,WeatherDisplay:10.37,2013-09-03 06:42:00,
2013-09-03 08:47:00,65.1,55.5,30.03,WSW,248,17.3,17.3,71,0.00,BKN,,0.00,WeatherDisplay:10.37,2013-09-03 06:47:00,
2013-09-03 08:52:00,65.1,55.5,30.03,West,270,19.0,19.0,71,0.00,BKN,,0.00,WeatherDisplay:10.37,2013-09-03 06:52:00,
2013-09-03 08:57:00,65.1,55.9,30.03,SW,225,17.3,17.3,72,0.00,BKN,,0.00,WeatherDisplay:10.37,2013-09-03 06:57:00,
2013-09-03 09:02:00,64.9,55.7,30.03,West,270,21.9,21.9,72,0.00,BKN,,0.00,WeatherDisplay:10.37,2013-09-03 07:02:00,
2013-09-03 09:07:00,64.9,56.1,30.03,NE,45,24.2,24.2,73,0.00,BKN,,0.00,WeatherDisplay:10.37,2013-09-03 07:07:00,
2013-09-03 09:12:00,64.9,56.1,30.04,West,270,19.6,19.6,73,0.00,BKN,,0.00,WeatherDisplay:10.37,2013-09-03 07:12:00,
2013-09-03 09:17:00,64.9,56.5,30.04,NW,315,17.3,17.3,74,0.00,BKN,,0.00,WeatherDisplay:10.37,2013-09-03 07:17:00,
2013-09-03 09:22:00,64.9,56.5,30.04,West,270,11.5,11.5,74,0.00,BKN,,0.00,WeatherDisplay:10.37,2013-09-03 07:22:00,
2013-09-03 09:27:00,64.9,56.5,30.04,West,270,19.6,19.6,74,0.00,BKN,,0.00,WeatherDisplay:10.37,2013-09-03 07:27:00,
2013-09-03 09:32:00,65.1,56.6,30.03,NW,315,16.8,16.8,74,0.00,BKN,,0.00,WeatherDisplay:10.37,2013-09-03 07:32:00,
2013-09-03 09:37:00,65.3,56.8,30.04,NW,315,20.7,20.7,74,0.00,BKN,,0.00,WeatherDisplay:10.37,2013-09-03 07:37:00,
2013-09-03 09:42:00,65.3,56.4,30.04,West,270,19.6,19.6,73,0.00,BKN,,0.00,WeatherDisplay:10.37,2013-09-03 07:42:00,
2013-09-03 09:47:00,65.5,57.0,30.04,NW,315,13.8,13.8,74,0.00,BKN,,0.00,WeatherDisplay:10.37,2013-09-03 07:47:00,
2013-09-03 09:52:00,65.7,57.1,30.04,NW,315,15.0,15.0,74,0.00,BKN,,0.00,WeatherDisplay:10.37,2013-09-03 07:52:00,
2013-09-03 09:57:00,66.0,57.1,30.04,WNW,292,18.4,18.4,73,0.00,BKN,,0.00,WeatherDisplay:10.37,2013-09-03 07:57:00,
2013-09-03 10:02:00,66.0,57.1,30.04,West,270,17.3,17.3,73,0.00,BKN,,0.00,WeatherDisplay:10.37,2013-09-03 08:02:00,
2013-09-03 10:07:00,66.0,57.1,30.04,West,270,17.5,17.5,73,0.00,BKN,,0.00,WeatherDisplay:10.37,2013-09-03 08:07:00,
2013-09-03 10:12:00,66.4,57.1,30.04,NW,315,19.6,19.6,72,0.00,BKN,,0.00,WeatherDisplay:10.37,2013-09-03 08:12:00,
2013-09-03 10:17:00,66.6,57.3,30.05,North,0,17.3,17.3,72,0.00,SCT,BKN,0.00,WeatherDisplay:10.37,2013-09-03 08:17:00,
2013-09-03 10:22:00,66.7,57.4,30.05,NW,315,19.6,19.6,72,0.00,SCT,BKN,0.00,WeatherDisplay:10.37,2013-09-03 08:22:00,
2013-09-03 10:27:00,66.7,57.4,30.05,North,0,19.6,19.6,72,0.00,SCT,BKN,0.00,WeatherDisplay:10.37,2013-09-03 08:27:00,
2013-09-03 10:32:00,66.6,57.3,30.05,South,180,16.1,16.1,72,0.00,SCT,BKN,0.00,WeatherDisplay:10.37,2013-09-03 08:32:00,
2013-09-03 10:37:00,66.7,57.4,30.04,NW,315,15.9,15.9,72,0.00,SCT,BKN,0.00,WeatherDisplay:10.37,2013-09-03 08:37:00,
2013-09-03 10:42:00,66.9,57.6,30.05,WSW,248,21.9,21.9,72,0.00,SCT,BKN,0.00,WeatherDisplay:10.37,2013-09-03 08:42:00,
2013-09-03 10:47:00,67.1,57.8,30.05,WNW,292,16.8,16.8,72,0.00,SCT,BKN,0.00,WeatherDisplay:10.37,2013-09-03 08:47:00,
2013-09-03 10:52:00,67.3,57.9,30.05,NW,315,20.7,20.7,72,0.00,SCT,BKN,0.00,WeatherDisplay:10.37,2013-09-03 08:52:00,
2013-09-03 10:57:00,67.6,58.3,30.05,NW,315,15.2,15.2,72,0.00,SCT,BKN,0.00,WeatherDisplay:10.37,2013-09-03 08:57:00,
2013-09-03 11:02:00,68.2,58.4,30.05,NW,315,12.1,12.1,71,0.00,SCT,BKN,0.00,WeatherDisplay:10.37,2013-09-03 09:02:00,
2013-09-03 11:07:00,68.7,58.5,30.05,WNW,292,19.7,19.7,70,0.00,SCT,BKN,0.00,WeatherDisplay:10.37,2013-09-03 09:07:00,
2013-09-03 11:12:00,69.1,58.9,30.04,NW,315,20.7,20.7,70,0.00,SCT,BKN,0.00,WeatherDisplay:10.37,2013-09-03 09:12:00,
2013-09-03 11:17:00,69.3,58.7,30.05,West,270,16.1,16.1,69,0.00,SCT,BKN,0.00,WeatherDisplay:10.37,2013-09-03 09:17:00,
2013-09-03 11:22:00,69.4,58.8,30.05,West,270,15.2,15.2,69,0.00,SCT,BKN,0.00,WeatherDisplay:10.37,2013-09-03 09:22:00,
2013-09-03 11:27:00,69.4,58.8,30.05,North,0,15.0,15.0,69,0.00,SCT,BKN,0.00,WeatherDisplay:10.37,2013-09-03 09:27:00,
2013-09-03 11:32:00,69.6,58.6,30.05,NW,315,12.7,12.7,68,0.00,SCT,BKN,0.00,WeatherDisplay:10.37,2013-09-03 09:32:00,
2013-09-03 11:37:00,69.8,58.3,30.05,West,270,17.3,17.3,67,0.00,SCT,BKN,0.00,WeatherDisplay:10.37,2013-09-03 09:37:00,
2013-09-03 11:42:00,70.0,58.5,30.05,South,180,20.7,20.7,67,0.00,SCT,BKN,0.00,WeatherDisplay:10.37,2013-09-03 09:42:00,
2013-09-03 11:47:00,70.3,58.9,30.05,North,0,12.7,12.7,67,0.00,BKN,,0.00,WeatherDisplay:10.37,2013-09-03 09:47:00,
2013-09-03 11:52:00,70.9,59.4,30.05,NE,45,17.3,17.3,67,0.00,BKN,,0.00,WeatherDisplay:10.37,2013-09-03 09:52:00,
2013-09-03 11:57:00,71.2,59.3,30.05,NW,315,18.4,18.4,66,0.00,BKN,,0.00,WeatherDisplay:10.37,2013-09-03 09:57:00,
2013-09-03 12:02:00,71.4,59.0,30.05,West,270,19.6,19.6,65,0.00,BKN,,0.00,WeatherDisplay:10.37,2013-09-03 10:02:00,
2013-09-03 12:07:00,71.4,59.0,30.05,West,270,19.6,19.6,65,0.00,BKN,,0.00,WeatherDisplay:10.37,2013-09-03 10:07:00,
2013-09-03 12:12:00,72.3,59.0,30.05,South,180,26.0,26.0,63,0.00,BKN,,0.00,WeatherDisplay:10.37,2013-09-03 10:12:00,
2013-09-03 12:17:00,72.3,58.6,30.06,WNW,292,20.7,20.7,62,0.00,BKN,,0.00,WeatherDisplay:10.37,2013-09-03 10:17:00,
2013-09-03 12:22:00,72.3,58.6,30.05,NW,315,25.3,25.3,62,0.00,BKN,,0.00,WeatherDisplay:10.37,2013-09-03 10:22:00,
2013-09-03 12:27:00,72.3,58.6,30.06,NW,315,19.6,19.6,62,0.00,BKN,,0.00,WeatherDisplay:10.37,2013-09-03 10:27:00,
2013-09-03 12:32:00,72.5,58.3,30.06,North,0,21.9,21.9,61,0.00,BKN,,0.00,WeatherDisplay:10.37,2013-09-03 10:32:00,
2013-09-03 12:37:00,71.8,58.1,30.06,North,0,19.6,19.6,62,0.00,BKN,,0.00,WeatherDisplay:10.37,2013-09-03 10:37:00,
2013-09-03 12:42:00,71.6,58.3,30.06,West,270,13.8,13.8,63,0.00,BKN,,0.00,WeatherDisplay:10.37,2013-09-03 10:42:00,
2013-09-03 12:47:00,71.8,58.9,30.06,West,270,12.1,12.1,64,0.00,BKN,,0.00,WeatherDisplay:10.37,2013-09-03 10:47:00,
2013-09-03 12:52:00,72.3,59.0,30.06,NW,315,22.2,22.2,63,0.00,BKN,,0.00,WeatherDisplay:10.37,2013-09-03 10:52:00,
2013-09-03 12:57:00,72.0,58.7,30.06,WSW,248,12.7,12.7,63,0.00,BKN,,0.00,WeatherDisplay:10.37,2013-09-03 10:57:00,
2013-09-03 13:02:00,72.0,58.7,30.06,NW,315,12.7,12.7,63,0.00,BKN,,0.00,WeatherDisplay:10.37,2013-09-03 11:02:00,
2013-09-03 13:07:00,72.0,59.1,30.06,NW,315,15.9,15.9,64,0.00,BKN,,0.00,WeatherDisplay:10.37,2013-09-03 11:07:00,
2013-09-03 13:12:00,72.1,59.3,30.06,NW,315,12.7,12.7,64,0.00,BKN,,0.00,WeatherDisplay:10.37,2013-09-03 11:12:00,
2013-09-03 13:17:00,72.0,58.7,30.06,North,0,19.0,19.0,63,0.00,BKN,,0.00,WeatherDisplay:10.37,2013-09-03 11:17:00,
2013-09-03 13:22:00,71.6,58.3,30.06,West,270,13.8,13.8,63,0.00,BKN,,0.00,WeatherDisplay:10.37,2013-09-03 11:22:00,
2013-09-03 13:27:00,71.4,58.6,30.06,NW,315,15.9,15.9,64,0.00,BKN,,0.00,WeatherDisplay:10.37,2013-09-03 11:27:00,
2013-09-03 13:32:00,71.4,58.6,30.06,North,0,17.3,17.3,64,0.00,BKN,,0.00,WeatherDisplay:10.37,2013-09-03 11:32:00,
2013-09-03 13:37:00,71.2,58.4,30.06,NW,315,15.0,15.0,64,0.00,BKN,,0.00,WeatherDisplay:10.37,2013-09-03 11:37:00,
2013-09-03 13:42:00,71.2,59.3,30.06,West,270,17.3,17.3,66,0.00,BKN,,0.00,WeatherDisplay:10.37,2013-09-03 11:42:00,
2013-09-03 13:47:00,71.2,59.3,30.06,NW,315,12.7,12.7,66,0.00,SCT,BKN,0.00,WeatherDisplay:10.37,2013-09-03 11:47:00,
2013-09-03 13:52:00,71.6,58.8,30.06,NW,315,23.0,23.0,64,0.00,SCT,BKN,0.00,WeatherDisplay:10.37,2013-09-03 11:52:00,
2013-09-03 13:57:00,72.0,58.7,30.06,North,0,15.0,15.0,63,0.00,SCT,BKN,0.00,WeatherDisplay:10.37,2013-09-03 11:57:00,
2013-09-03 14:02:00,72.1,58.8,30.06,NW,315,12.7,12.7,63,0.00,SCT,BKN,0.00,WeatherDisplay:10.37,2013-09-03 12:02:00,
2013-09-03 14:07:00,72.1,58.8,30.06,NW,315,12.7,12.7,63,0.00,SCT,BKN,0.00,WeatherDisplay:10.37,2013-09-03 12:07:00,
2013-09-03 14:12:00,72.3,59.0,30.06,North,0,19.0,19.0,63,0.00,SCT,BKN,0.00,WeatherDisplay:10.37,2013-09-03 12:12:00,
2013-09-03 14:17:00,72.5,58.7,30.06,NW,315,15.2,15.2,62,0.00,SCT,BKN,0.00,WeatherDisplay:10.37,2013-09-03 12:17:00,
2013-09-03 14:22:00,72.5,58.7,30.06,SW,225,15.0,15.0,62,0.00,SCT,BKN,0.00,WeatherDisplay:10.37,2013-09-03 12:22:00,
2013-09-03 14:27:00,73.0,59.2,30.06,West,270,17.3,17.3,62,0.00,SCT,BKN,0.00,WeatherDisplay:10.37,2013-09-03 12:27:00,
2013-09-03 14:32:00,73.4,59.6,30.06,NW,315,20.7,20.7,62,0.00,BKN,,0.00,WeatherDisplay:10.37,2013-09-03 12:32:00,
2013-09-03 14:37:00,73.6,59.3,30.06,North,0,13.0,13.0,61,0.00,BKN,,0.00,WeatherDisplay:10.37,2013-09-03 12:37:00,
2013-09-03 14:42:00,73.6,58.8,30.06,NW,315,18.4,18.4,60,0.00,BKN,,0.00,WeatherDisplay:10.37,2013-09-03 12:42:00,
2013-09-03 14:47:00,73.4,57.7,30.06,WNW,292,15.0,15.0,58,0.00,BKN,,0.00,WeatherDisplay:10.37,2013-09-03 12:47:00,
2013-09-03 14:52:00,73.0,57.4,30.06,West,270,17.3,17.3,58,0.00,BKN,,0.00,WeatherDisplay:10.37,2013-09-03 12:52:00,
2013-09-03 14:57:00,72.9,57.2,30.06,NW,315,15.0,15.0,58,0.00,BKN,,0.00,WeatherDisplay:10.37,2013-09-03 12:57:00,
2013-09-03 15:02:00,73.0,57.4,30.07,NW,315,19.7,19.7,58,0.00,SCT,BKN,0.00,WeatherDisplay:10.37,2013-09-03 13:02:00,
2013-09-03 15:07:00,73.0,55.4,30.07,NW,315,23.0,23.0,54,0.00,SCT,BKN,0.00,WeatherDisplay:10.37,2013-09-03 13:07:00,
2013-09-03 15:12:00,73.4,55.2,30.06,NW,315,13.0,13.0,53,0.00,SCT,BKN,0.00,WeatherDisplay:10.37,2013-09-03 13:12:00,
2013-09-03 15:17:00,73.6,54.9,30.06,North,0,16.1,16.1,52,0.00,SCT,BKN,0.00,WeatherDisplay:10.37,2013-09-03 13:17:00,
2013-09-03 15:22:00,73.8,55.6,30.06,North,0,19.7,19.7,53,0.00,SCT,BKN,0.00,WeatherDisplay:10.37,2013-09-03 13:22:00,
2013-09-03 15:27:00,73.9,54.1,30.06,NW,315,15.0,15.0,50,0.00,SCT,BKN,0.00,WeatherDisplay:10.37,2013-09-03 13:27:00,
2013-09-03 15:32:00,73.9,53.6,30.07,West,270,16.1,16.1,49,0.00,SCT,BKN,0.00,WeatherDisplay:10.37,2013-09-03 13:32:00,
2013-09-03 15:37:00,74.3,53.9,30.06,NW,315,15.0,15.0,49,0.00,SCT,BKN,0.00,WeatherDisplay:10.37,2013-09-03 13:37:00,
2013-09-03 15:42:00,74.5,54.1,30.06,NW,315,19.6,19.6,49,0.00,SCT,BKN,0.00,WeatherDisplay:10.37,2013-09-03 13:42:00,
2013-09-03 15:47:00,74.7,54.8,30.06,NW,315,11.5,11.5,50,0.00,FEW,BKN,0.00,WeatherDisplay:10.37,2013-09-03 13:47:00,
2013-09-03 15:52:00,74.7,54.2,30.06,NW,315,12.7,12.7,49,0.00,FEW,BKN,0.00,WeatherDisplay:10.37,2013-09-03 13:52:00,
2013-09-03 15:57:00,74.7,54.8,30.06,SE,135,15.2,15.2,50,0.00,FEW,BKN,0.00,WeatherDisplay:10.37,2013-09-03 13:57:00,
2013-09-03 16:02:00,74.5,53.5,30.06,North,0,10.4,10.4,48,0.00,FEW,BKN,0.00,WeatherDisplay:10.37,2013-09-03 14:02:00,
2013-09-03 16:07:00,74.5,54.1,30.06,NW,315,13.7,13.7,49,0.00,FEW,BKN,0.00,WeatherDisplay:10.37,2013-09-03 14:07:00,
2013-09-03 16:12:00,74.3,53.3,30.06,North,0,19.7,19.7,48,0.00,FEW,BKN,0.00,WeatherDisplay:10.37,2013-09-03 14:12:00,
2013-09-03 16:17:00,73.9,52.4,30.06,WNW,292,15.0,15.0,47,0.00,FEW,BKN,0.00,WeatherDisplay:10.37,2013-09-03 14:17:00,
2013-09-03 16:22:00,74.1,52.0,30.06,NW,315,17.3,17.3,46,0.00,FEW,BKN,0.00,WeatherDisplay:10.37,2013-09-03 14:22:00,
2013-09-03 16:27:00,73.9,51.8,30.06,NW,315,18.4,18.4,46,0.00,FEW,BKN,0.00,WeatherDisplay:10.37,2013-09-03 14:27:00,
2013-09-03 16:32:00,73.9,51.8,30.06,North,0,19.6,19.6,46,0.00,FEW,BKN,0.00,WeatherDisplay:10.37,2013-09-03 14:32:00,
2013-09-03 16:37:00,73.9,52.4,30.07,NW,315,11.5,11.5,47,0.00,FEW,BKN,0.00,WeatherDisplay:10.37,2013-09-03 14:37:00,
2013-09-03 16:42:00,73.9,52.4,30.07,NNW,338,17.3,17.3,47,0.00,FEW,BKN,0.00,WeatherDisplay:10.37,2013-09-03 14:42:00,
2013-09-03 16:47:00,73.9,52.4,30.06,North,0,12.1,12.1,47,0.00,SCT,BKN,0.00,WeatherDisplay:10.37,2013-09-03 14:47:00,
2013-09-03 16:52:00,73.6,51.5,30.07,North,0,16.8,16.8,46,0.00,SCT,BKN,0.00,WeatherDisplay:10.37,2013-09-03 14:52:00,
2013-09-03 16:57:00,73.2,51.8,30.07,NW,315,17.3,17.3,47,0.00,SCT,BKN,0.00,WeatherDisplay:10.37,2013-09-03 14:57:00,
2013-09-03 17:02:00,73.0,52.2,30.07,NW,315,12.7,12.7,48,0.00,SCT,BKN,0.00,WeatherDisplay:10.37,2013-09-03 15:02:00,
2013-09-03 17:07:00,73.0,51.6,30.06,NW,315,17.3,17.3,47,0.00,SCT,BKN,0.00,WeatherDisplay:10.37,2013-09-03 15:07:00,
2013-09-03 17:12:00,72.9,51.4,30.06,NW,315,17.3,17.3,47,0.00,SCT,BKN,0.00,WeatherDisplay:10.37,2013-09-03 15:12:00,
2013-09-03 17:17:00,72.7,51.3,30.06,SW,225,15.0,15.0,47,0.00,SCT,BKN,0.00,WeatherDisplay:10.37,2013-09-03 15:17:00,
2013-09-03 17:22:00,72.7,50.7,30.06,NW,315,17.3,17.3,46,0.00,SCT,BKN,0.00,WeatherDisplay:10.37,2013-09-03 15:22:00,
2013-09-03 17:27:00,72.7,50.7,30.07,NW,315,18.4,18.4,46,0.00,SCT,BKN,0.00,WeatherDisplay:10.37,2013-09-03 15:27:00,
2013-09-03 17:32:00,72.7,50.7,30.07,West,270,11.5,11.5,46,0.00,CLR,BKN,0.00,WeatherDisplay:10.37,2013-09-03 15:32:00,
2013-09-03 17:37:00,72.7,51.3,30.07,North,0,13.8,13.8,47,0.00,CLR,BKN,0.00,WeatherDisplay:10.37,2013-09-03 15:37:00,
2013-09-03 17:42:00,72.5,50.5,30.07,North,0,15.0,15.0,46,0.00,CLR,BKN,0.00,WeatherDisplay:10.37,2013-09-03 15:42:00,
2013-09-03 17:47:00,72.3,50.4,30.07,North,0,15.2,15.2,46,0.00,CLR,BKN,0.00,WeatherDisplay:10.37,2013-09-03 15:47:00,
2013-09-03 17:52:00,72.1,50.8,30.06,North,0,21.3,21.3,47,0.00,CLR,BKN,0.00,WeatherDisplay:10.37,2013-09-03 15:52:00,
2013-09-03 17:57:00,72.0,51.2,30.07,NNW,338,15.9,15.9,48,0.00,CLR,BKN,0.00,WeatherDisplay:10.37,2013-09-03 15:57:00,
2013-09-03 18:02:00,71.8,51.0,30.07,NW,315,16.1,16.1,48,0.00,CLR,BKN,0.00,WeatherDisplay:10.37,2013-09-03 16:02:00,
2013-09-03 18:07:00,71.8,51.0,30.07,NW,315,16.1,16.1,48,0.00,CLR,BKN,0.00,WeatherDisplay:10.37,2013-09-03 16:07:00,
2013-09-03 18:12:00,70.9,51.8,30.07,WNW,292,15.2,15.2,51,0.00,CLR,BKN,0.00,WeatherDisplay:10.37,2013-09-03 16:12:00,
2013-09-03 18:17:00,70.7,51.7,30.07,North,0,15.2,15.2,51,0.00,CLR,BKN,0.00,WeatherDisplay:10.37,2013-09-03 16:17:00,
2013-09-03 18:22:00,70.3,51.9,30.08,North,0,9.2,9.2,52,0.00,CLR,BKN,0.00,WeatherDisplay:10.37,2013-09-03 16:22:00,
2013-09-03 18:27:00,70.2,51.7,30.08,West,270,13.0,13.0,52,0.00,CLR,BKN,0.00,WeatherDisplay:10.37,2013-09-03 16:27:00,
2013-09-03 18:32:00,70.0,51.5,30.08,West,270,12.7,12.7,52,0.00,CLR,BKN,0.00,WeatherDisplay:10.37,2013-09-03 16:32:00,
2013-09-03 18:37:00,69.6,51.7,30.08,NW,315,17.3,17.3,53,0.00,CLR,BKN,0.00,WeatherDisplay:10.37,2013-09-03 16:37:00,
2013-09-03 18:42:00,69.4,52.1,30.08,WSW,248,17.3,17.3,54,0.00,CLR,BKN,0.00,WeatherDisplay:10.37,2013-09-03 16:42:00,
2013-09-03 18:47:00,69.3,51.9,30.08,NW,315,16.8,16.8,54,0.00,CLR,BKN,0.00,WeatherDisplay:10.37,2013-09-03 16:47:00,
2013-09-03 18:52:00,69.1,51.7,30.08,NW,315,13.8,13.8,54,0.00,CLR,BKN,0.00,WeatherDisplay:10.37,2013-09-03 16:52:00,
2013-09-03 18:57:00,68.9,51.6,30.10,North,0,10.4,10.4,54,0.00,CLR,BKN,0.00,WeatherDisplay:10.37,2013-09-03 16:57:00,
2013-09-03 19:02:00,68.7,51.4,30.10,NW,315,8.1,8.1,54,0.00,CLR,BKN,0.00,WeatherDisplay:10.37,2013-09-03 17:02:00,
2013-09-03 19:07:00,68.5,51.2,30.10,West,270,16.1,16.1,54,0.00,CLR,BKN,0.00,WeatherDisplay:10.37,2013-09-03 17:07:00,
2013-09-03 19:12:00,68.4,51.1,30.10,NNE,14,8.3,8.3,54,0.00,CLR,BKN,0.00,WeatherDisplay:10.37,2013-09-03 17:12:00,
2013-09-03 19:17:00,68.2,51.4,30.09,WSW,248,9.2,9.2,55,0.00,CLR,BKN,0.00,WeatherDisplay:10.37,2013-09-03 17:17:00,
2013-09-03 19:22:00,68.0,51.2,30.10,West,270,11.4,11.4,55,0.00,CLR,BKN,0.00,WeatherDisplay:10.37,2013-09-03 17:22:00,
2013-09-03 19:27:00,67.8,51.5,30.11,SW,225,9.2,9.2,56,0.00,CLR,BKN,0.00,WeatherDisplay:10.37,2013-09-03 17:27:00,
2013-09-03 19:32:00,67.6,51.4,30.11,South,180,3.5,3.5,56,0.00,CLR,BKN,0.00,WeatherDisplay:10.37,2013-09-03 17:32:00,
2013-09-03 19:37:00,67.5,51.7,30.12,South,180,5.8,5.8,57,0.00,CLR,BKN,0.00,WeatherDisplay:10.37,2013-09-03 17:37:00,
2013-09-03 19:42:00,67.3,51.5,30.12,North,0,5.8,5.8,57,0.00,CLR,BKN,0.00,WeatherDisplay:10.37,2013-09-03 17:42:00,
2013-09-03 19:47:00,66.9,51.7,30.12,SW,225,3.5,3.5,58,0.00,CLR,BKN,0.00,WeatherDisplay:10.37,2013-09-03 17:47:00,
2013-09-03 19:52:00,66.7,52.0,30.13,West,270,6.9,6.9,59,0.00,CLR,BKN,0.00,WeatherDisplay:10.37,2013-09-03 17:52:00,
2013-09-03 19:57:00,66.6,51.8,30.13,NNE,22,10.4,10.4,59,0.00,CLR,BKN,0.00,WeatherDisplay:10.37,2013-09-03 17:57:00,
2013-09-03 20:02:00,66.6,52.2,30.14,NW,315,10.4,10.4,60,0.00,CLR,BKN,0.00,WeatherDisplay:10.37,2013-09-03 18:02:00,
2013-09-03 20:07:00,66.6,52.2,30.13,NW,315,10.4,10.4,60,0.00,CLR,BKN,0.00,WeatherDisplay:10.37,2013-09-03 18:07:00,
2013-09-03 20:12:00,66.7,52.4,30.14,NW,315,10.4,10.4,60,0.00,CLR,BKN,0.00,WeatherDisplay:10.37,2013-09-03 18:12:00,
2013-09-03 20:17:00,66.7,52.0,30.13,North,0,13.8,13.8,59,0.00,CLR,BKN,0.00,WeatherDisplay:10.37,2013-09-03 18:17:00,
2013-09-03 20:22:00,66.7,52.0,30.13,North,0,9.2,9.2,59,0.00,CLR,BKN,0.00,WeatherDisplay:10.37,2013-09-03 18:22:00,
2013-09-03 20:27:00,66.6,51.8,30.14,North,0,5.4,5.4,59,0.00,CLR,BKN,0.00,WeatherDisplay:10.37,2013-09-03 18:27:00,
2013-09-03 20:32:00,66.6,51.8,30.15,South,180,10.4,10.4,59,0.00,CLR,BKN,0.00,WeatherDisplay:10.37,2013-09-03 18:32:00,
2013-09-03 20:37:00,66.4,51.6,30.15,SW,225,9.2,9.2,59,0.00,CLR,BKN,0.00,WeatherDisplay:10.37,2013-09-03 18:37:00,
2013-09-03 20:42:00,66.2,51.0,30.15,West,270,6.0,6.0,58,0.00,CLR,BKN,0.00,WeatherDisplay:10.37,2013-09-03 18:42:00,
2013-09-03 20:47:00,66.0,51.3,30.15,West,270,8.1,8.1,59,0.00,CLR,BKN,0.00,WeatherDisplay:10.37,2013-09-03 18:47:00,
2013-09-03 20:52:00,65.8,51.1,30.15,SW,225,4.5,4.5,59,0.00,CLR,BKN,0.00,WeatherDisplay:10.37,2013-09-03 18:52:00,
2013-09-03 20:57:00,65.7,50.9,30.15,West,270,5.8,5.8,59,0.00,CLR,BKN,0.00,WeatherDisplay:10.37,2013-09-03 18:57:00,
2013-09-03 21:02:00,65.5,50.8,30.15,NW,315,9.2,9.2,59,0.00,CLR,BKN,0.00,WeatherDisplay:10.37,2013-09-03 19:02:00,
2013-09-03 21:07:00,65.5,50.8,30.15,NW,315,5.8,5.8,59,0.00,CLR,BKN,0.00,WeatherDisplay:10.37,2013-09-03 19:07:00,
2013-09-03 21:12:00,65.3,50.1,30.16,WNW,292,6.9,6.9,58,0.00,CLR,BKN,0.00,WeatherDisplay:10.37,2013-09-03 19:12:00,
2013-09-03 21:17:00,65.1,50.0,30.16,NW,315,5.8,5.8,58,0.00,CLR,BKN,0.00,WeatherDisplay:10.37,2013-09-03 19:17:00,
2013-09-03 21:22:00,64.9,50.3,30.16,West,270,6.0,6.0,59,0.00,CLR,BKN,0.00,WeatherDisplay:10.37,2013-09-03 19:22:00,
2013-09-03 21:27:00,64.9,50.7,30.16,West,270,8.1,8.1,60,0.00,CLR,BKN,0.00,WeatherDisplay:10.37,2013-09-03 19:27:00,
2013-09-03 21:32:00,64.8,51.0,30.16,SW,225,8.1,8.1,61,0.00,CLR,BKN,0.00,WeatherDisplay:10.37,2013-09-03 19:32:00,
2013-09-03 21:37:00,64.6,50.8,30.16,NW,315,9.8,9.8,61,0.00,CLR,BKN,0.00,WeatherDisplay:10.37,2013-09-03 19:37:00,
2013-09-03 21:43:00,64.6,50.8,30.16,West,270,10.4,10.4,61,0.00,CLR,BKN,0.00,WeatherDisplay:10.37,2013-09-03 19:43:00,
2013-09-03 21:48:00,64.8,51.0,30.16,WNW,292,10.7,10.7,61,0.00,CLR,BKN,0.00,WeatherDisplay:10.37,2013-09-03 19:48:00,
2013-09-03 21:53:00,64.8,50.5,30.16,NW,315,5.8,7.6,60,0.00,CLR,BKN,0.00,WeatherDisplay:10.37,2013-09-03 19:53:00,
2013-09-03 21:58:00,64.9,50.3,30.17,NW,315,6.9,6.9,59,0.00,CLR,BKN,0.00,WeatherDisplay:10.37,2013-09-03 19:58:00,
2013-09-03 22:03:00,64.9,50.3,30.17,NW,315,8.1,8.1,59,0.00,CLR,BKN,0.00,WeatherDisplay:10.37,2013-09-03 20:03:00,
2013-09-03 22:08:00,64.8,50.1,30.17,NW,315,8.1,8.1,59,0.00,CLR,BKN,0.00,WeatherDisplay:10.37,2013-09-03 20:08:00,
2013-09-03 22:13:00,64.6,49.9,30.17,West,270,9.2,9.2,59,0.00,CLR,BKN,0.00,WeatherDisplay:10.37,2013-09-03 20:13:00,
2013-09-03 22:18:00,64.6,49.5,30.17,North,0,12.7,12.7,58,0.00,CLR,BKN,0.00,WeatherDisplay:10.37,2013-09-03 20:18:00,
2013-09-03 22:23:00,64.4,49.3,30.18,North,0,12.7,12.7,58,0.00,CLR,BKN,0.00,WeatherDisplay:10.37,2013-09-03 20:23:00,
2013-09-03 22:28:00,64.4,49.8,30.18,NW,315,13.7,13.7,59,0.00,CLR,BKN,0.00,WeatherDisplay:10.37,2013-09-03 20:28:00,
2013-09-03 22:33:00,64.4,49.3,30.17,North,0,12.7,12.7,58,0.00,CLR,BKN,0.00,WeatherDisplay:10.37,2013-09-03 20:33:00,
2013-09-03 22:38:00,64.2,49.6,30.18,North,0,11.5,11.5,59,0.00,CLR,BKN,0.00,WeatherDisplay:10.37,2013-09-03 20:38:00,
2013-09-03 22:43:00,64.0,49.4,30.18,North,0,8.1,8.1,59,0.00,CLR,BKN,0.00,WeatherDisplay:10.37,2013-09-03 20:43:00,
2013-09-03 22:48:00,63.9,49.2,30.19,North,0,5.8,5.8,59,0.00,CLR,BKN,0.00,WeatherDisplay:10.37,2013-09-03 20:48:00,
2013-09-03 22:53:00,63.5,48.9,30.18,North,0,8.1,8.1,59,0.00,CLR,BKN,0.00,WeatherDisplay:10.37,2013-09-03 20:53:00,
2013-09-03 22:58:00,63.3,48.7,30.18,NNW,338,8.1,8.1,59,0.00,CLR,BKN,0.00,WeatherDisplay:10.37,2013-09-03 20:58:00,
2013-09-03 23:03:00,63.3,48.7,30.18,WSW,248,5.8,5.8,59,0.00,CLR,BKN,0.00,WeatherDisplay:10.37,2013-09-03 21:03:00,
2013-09-03 23:08:00,63.1,48.6,30.19,North,0,6.9,6.9,59,0.00,CLR,BKN,0.00,WeatherDisplay:10.37,2013-09-03 21:08:00,
2013-09-03 23:13:00,63.1,48.6,30.19,North,0,8.3,8.3,59,0.00,CLR,BKN,0.00,WeatherDisplay:10.37,2013-09-03 21:13:00,
2013-09-03 23:18:00,63.0,48.4,30.19,North,0,8.1,8.1,59,0.00,CLR,BKN,0.00,WeatherDisplay:10.37,2013-09-03 21:18:00,
2013-09-03 23:23:00,62.8,48.7,30.19,North,0,10.4,10.4,60,0.00,CLR,BKN,0.00,WeatherDisplay:10.37,2013-09-03 21:23:00,
2013-09-03 23:29:00,62.6,48.5,30.19,North,0,10.4,10.4,60,0.00,CLR,BKN,0.00,WeatherDisplay:10.37,2013-09-03 21:29:00,
2013-09-03 23:35:00,62.5,48.8,30.19,North,6,5.0,9.0,61,0.00,CLR,BKN,0.00,WeatherDisplay:10.37,2013-09-03 21:35:00,
2013-09-03 23:40:00,62.2,48.6,30.19,North,4,8.0,12.0,61,0.00,CLR,BKN,0.00,WeatherDisplay:10.37,2013-09-03 21:40:00,
2013-09-03 23:45:00,62.1,48.9,30.19,North,0,11.5,11.5,62,0.00,CLR,BKN,0.00,WeatherDisplay:10.37,2013-09-03 21:45:00,
2013-09-03 23:50:00,62.1,48.9,30.20,North,0,8.1,8.1,62,0.00,CLR,BKN,0.00,WeatherDisplay:10.37,2013-09-03 21:50:00,
2013-09-03 23:55:00,61.9,48.7,30.19,NW,315,4.6,4.6,62,0.00,CLR,BKN,0.00,WeatherDisplay:10.37,2013-09-03 21:55:00,